createdAt,value
2023-01-29T00:01:55.929Z,58.44
2023-01-29T00:04:23.138Z,58.67
2023-01-29T00:06:49.769Z,58.46
2023-01-29T00:09:16.363Z,58.56
2023-01-29T00:11:42.984Z,59.11
2023-01-29T00:14:09.788Z,59.05
2023-01-29T00:16:36.398Z,59.27
2023-01-29T00:19:03.512Z,58.83
2023-01-29T00:21:31.103Z,58.85
2023-01-29T00:23:58.175Z,58.10
2023-01-29T00:26:25.014Z,57.98
2023-01-29T00:28:51.976Z,58.06
2023-01-29T00:31:23.382Z,57.67
2023-01-29T00:33:50.078Z,58.22
2023-01-29T00:36:18.349Z,57.82
2023-01-29T00:38:44.950Z,58.31
2023-01-29T00:41:34.767Z,57.95
2023-01-29T00:44:20.514Z,57.66
2023-01-29T00:46:47.102Z,57.55
2023-01-29T00:49:13.696Z,58.28
2023-01-29T00:51:40.316Z,58.13
2023-01-29T00:54:07.179Z,58.41
2023-01-29T00:56:37.192Z,58.66
2023-01-29T00:59:04.650Z,59.50
2023-01-29T01:01:49.980Z,58.74
2023-01-29T01:04:16.520Z,59.12
2023-01-29T01:06:43.076Z,59.76
2023-01-29T01:09:29.539Z,58.41
2023-01-29T01:11:56.180Z,57.92
2023-01-29T01:14:22.716Z,58.88
2023-01-29T01:16:49.543Z,58.63
2023-01-29T01:19:16.216Z,57.95
2023-01-29T01:21:48.208Z,58.33
2023-01-29T01:24:15.392Z,57.97
2023-01-29T01:26:41.999Z,57.55
2023-01-29T01:29:09.191Z,57.47
2023-01-29T01:31:35.854Z,56.96
2023-01-29T01:34:02.475Z,57.86
2023-01-29T01:36:31.468Z,57.47
2023-01-29T01:38:58.623Z,58.61
2023-01-29T01:41:25.657Z,58.85
2023-01-29T01:44:00.784Z,59.18
2023-01-29T01:46:33.750Z,58.94
2023-01-29T01:49:04.452Z,58.15
2023-01-29T01:51:32.822Z,59.49
2023-01-29T01:54:19.145Z,58.74
2023-01-29T01:56:49.416Z,59.24
2023-01-29T01:59:18.838Z,59.62
2023-01-29T02:01:51.227Z,59.91
2023-01-29T02:04:39.384Z,58.75
2023-01-29T02:07:26.795Z,59.84
2023-01-29T02:10:12.489Z,59.16
2023-01-29T02:12:39.452Z,59.32
2023-01-29T02:15:07.050Z,58.20
2023-01-29T02:17:33.593Z,59.01
2023-01-29T02:20:00.140Z,58.97
2023-01-29T02:22:56.447Z,59.75
2023-01-29T02:25:47.994Z,59.45
2023-01-29T02:28:40.719Z,59.48
2023-01-29T02:31:31.957Z,58.91
2023-01-29T02:34:24.628Z,59.95
2023-01-29T02:37:00.436Z,59.41
2023-01-29T02:39:37.911Z,58.63
2023-01-29T02:42:35.874Z,58.93
2023-01-29T02:45:16.075Z,59.15
2023-01-29T02:47:48.587Z,59.29
2023-01-29T02:50:20.080Z,59.04
2023-01-29T02:52:58.787Z,58.67
2023-01-29T02:55:38.725Z,57.96
2023-01-29T02:58:12.082Z,57.77
2023-01-29T03:00:45.136Z,57.61
2023-01-29T03:03:21.345Z,58.16
2023-01-29T03:06:06.497Z,58.08
2023-01-29T03:08:43.232Z,58.85
2023-01-29T03:11:15.222Z,58.86
2023-01-29T03:14:10.456Z,58.75
2023-01-29T03:16:49.978Z,58.88
2023-01-29T03:19:20.733Z,59.10
2023-01-29T03:22:00.396Z,58.62
2023-01-29T03:25:04.218Z,58.33
2023-01-29T03:27:56.339Z,59.17
2023-01-29T03:30:44.425Z,58.73
2023-01-29T03:34:00.106Z,58.89
2023-01-29T03:36:39.587Z,58.28
2023-01-29T03:39:07.426Z,58.44
2023-01-29T03:41:52.763Z,58.56
2023-01-29T03:44:30.725Z,59.44
2023-01-29T03:47:18.459Z,60.77
2023-01-29T03:49:50.998Z,59.43
2023-01-29T03:52:23.488Z,60.22
2023-01-29T03:55:10.594Z,59.71
2023-01-29T03:57:45.671Z,59.30
2023-01-29T04:00:22.801Z,59.62
2023-01-29T04:03:09.813Z,59.11
2023-01-29T04:05:52.721Z,59.11
2023-01-29T04:08:29.387Z,57.90
2023-01-29T04:11:00.224Z,58.37
2023-01-29T04:13:27.236Z,58.24
2023-01-29T04:15:56.875Z,58.78
2023-01-29T04:18:50.828Z,57.95
2023-01-29T04:21:22.784Z,58.11
2023-01-29T04:23:49.356Z,57.56
2023-01-29T04:26:25.301Z,57.13
2023-01-29T04:29:22.009Z,56.55
2023-01-29T04:32:34.222Z,57.87
2023-01-29T04:35:08.950Z,59.28
2023-01-29T04:37:41.458Z,59.47
2023-01-29T04:40:19.135Z,59.60
2023-01-29T04:42:53.478Z,59.31
2023-01-29T04:45:28.582Z,59.12
2023-01-29T04:48:00.668Z,58.96
2023-01-29T04:50:35.740Z,58.06
2023-01-29T04:53:09.427Z,58.71
2023-01-29T04:55:43.780Z,58.08
2023-01-29T04:58:16.823Z,59.10
2023-01-29T05:00:44.689Z,58.59
2023-01-29T05:03:14.133Z,59.17
2023-01-29T05:05:42.935Z,58.14
2023-01-29T05:08:11.781Z,59.48
2023-01-29T05:10:38.957Z,58.45
2023-01-29T05:13:07.948Z,58.50
2023-01-29T05:15:38.519Z,58.29
2023-01-29T05:18:08.743Z,58.37
2023-01-29T05:20:37.844Z,58.33
2023-01-29T05:23:04.479Z,58.02
2023-01-29T05:25:32.894Z,57.92
2023-01-29T05:28:06.420Z,58.18
2023-01-29T05:30:35.048Z,58.55
2023-01-29T05:33:02.071Z,59.68
2023-01-29T05:35:28.777Z,60.07
2023-01-29T05:37:59.493Z,60.99
2023-01-29T05:40:26.103Z,59.96
2023-01-29T05:42:52.684Z,59.26
2023-01-29T05:45:19.722Z,60.60
2023-01-29T05:47:46.806Z,58.84
2023-01-29T05:50:14.283Z,58.85
2023-01-29T05:52:41.033Z,58.08
2023-01-29T05:55:09.575Z,58.12
2023-01-29T05:57:36.212Z,58.03
2023-01-29T06:00:04.422Z,57.90
2023-01-29T06:02:39.096Z,56.93
2023-01-29T06:05:05.837Z,57.59
2023-01-29T06:07:32.416Z,57.55
2023-01-29T06:09:58.997Z,57.90
2023-01-29T06:12:27.153Z,58.58
2023-01-29T06:14:53.681Z,57.86
2023-01-29T06:17:20.210Z,57.30
2023-01-29T06:19:46.766Z,57.44
2023-01-29T06:22:13.322Z,57.60
2023-01-29T06:24:39.888Z,57.99
2023-01-29T06:27:06.905Z,58.21
2023-01-29T06:29:33.494Z,58.07
2023-01-29T06:32:00.111Z,57.88
2023-01-29T06:34:26.776Z,58.94
2023-01-29T06:36:53.809Z,59.52
2023-01-29T06:39:20.325Z,59.29
2023-01-29T06:41:46.950Z,58.46
2023-01-29T06:44:13.687Z,58.40
2023-01-29T06:46:40.732Z,58.77
2023-01-29T06:49:07.340Z,59.26
2023-01-29T06:51:33.923Z,59.53
2023-01-29T06:54:00.452Z,60.32
2023-01-29T06:56:27.006Z,59.88
2023-01-29T06:58:54.180Z,60.41
2023-01-29T07:01:36.887Z,60.56
2023-01-29T07:04:03.835Z,59.08
2023-01-29T07:06:30.545Z,59.19
2023-01-29T07:08:57.108Z,58.37
2023-01-29T07:11:23.728Z,58.06
2023-01-29T07:13:50.275Z,58.18
2023-01-29T07:16:17.092Z,58.69
2023-01-29T07:18:43.705Z,58.45
2023-01-29T07:21:10.296Z,59.28
2023-01-29T07:23:37.469Z,60.42
2023-01-29T07:26:05.434Z,59.87
2023-01-29T07:28:32.331Z,59.76
2023-01-29T07:30:59.370Z,59.60
2023-01-29T07:33:26.256Z,59.55
2023-01-29T07:35:53.204Z,60.32
2023-01-29T07:38:19.772Z,59.12
2023-01-29T07:40:46.784Z,58.33
2023-01-29T07:43:13.545Z,57.96
2023-01-29T07:45:40.464Z,57.06
2023-01-29T07:48:09.461Z,56.87
2023-01-29T07:50:36.016Z,56.84
2023-01-29T07:53:02.741Z,57.33
2023-01-29T07:55:29.803Z,56.15
2023-01-29T07:57:58.309Z,56.67
2023-01-29T08:00:25.162Z,58.24
2023-01-29T08:02:52.374Z,57.86
2023-01-29T08:05:19.028Z,57.12
2023-01-29T08:07:49.359Z,56.83
2023-01-29T08:10:23.865Z,57.74
2023-01-29T08:12:58.679Z,58.77
2023-01-29T08:15:25.746Z,58.21
2023-01-29T08:17:57.956Z,56.91
2023-01-29T08:20:39.772Z,56.29
2023-01-29T08:23:09.473Z,58.10
2023-01-29T08:25:36.182Z,57.52
2023-01-29T08:28:02.842Z,57.55
2023-01-29T08:30:31.599Z,57.11
2023-01-29T08:32:58.364Z,56.62
2023-01-29T08:35:25.340Z,57.86
2023-01-29T08:38:02.304Z,56.80
2023-01-29T08:40:33.827Z,57.35
2023-01-29T08:43:02.701Z,57.47
2023-01-29T08:45:30.827Z,57.09
2023-01-29T08:47:57.423Z,56.19
2023-01-29T08:50:24.000Z,55.99
2023-01-29T08:52:50.695Z,56.70
2023-01-29T08:55:18.735Z,57.32
2023-01-29T08:57:45.820Z,58.18
2023-01-29T09:00:13.161Z,58.10
2023-01-29T09:02:39.794Z,57.17
2023-01-29T09:05:07.230Z,55.90
2023-01-29T09:07:34.066Z,56.67
2023-01-29T09:10:02.874Z,55.82
2023-01-29T09:12:30.047Z,55.38
2023-01-29T09:14:56.581Z,56.73
2023-01-29T09:17:23.201Z,56.45
2023-01-29T09:19:49.814Z,57.12
2023-01-29T09:22:16.346Z,57.27
2023-01-29T09:24:43.304Z,57.63
2023-01-29T09:27:10.867Z,56.63
2023-01-29T09:29:37.729Z,56.95
2023-01-29T09:32:05.031Z,57.71
2023-01-29T09:34:33.654Z,57.32
2023-01-29T09:37:00.238Z,56.51
2023-01-29T09:39:26.990Z,57.54
2023-01-29T09:42:00.409Z,57.90
2023-01-29T09:44:47.432Z,59.56
2023-01-29T09:47:16.229Z,57.72
2023-01-29T09:49:47.312Z,56.68
2023-01-29T09:52:35.423Z,56.58
2023-01-29T09:55:29.381Z,54.43
2023-01-29T09:58:01.525Z,54.66
2023-01-29T10:00:40.512Z,53.42
2023-01-29T10:03:26.009Z,51.80
2023-01-29T10:06:30.164Z,53.64
2023-01-29T10:08:59.765Z,53.33
2023-01-29T10:11:44.842Z,54.28
2023-01-29T10:14:53.845Z,54.85
2023-01-29T10:17:44.279Z,54.22
2023-01-29T10:20:55.138Z,53.19
2023-01-29T10:23:29.442Z,51.66
2023-01-29T10:25:56.069Z,51.96
2023-01-29T10:28:29.442Z,51.97
2023-01-29T10:31:12.432Z,51.10
2023-01-29T10:34:02.491Z,51.63
2023-01-29T10:36:36.487Z,50.32
2023-01-29T10:39:03.155Z,50.72
2023-01-29T10:41:38.477Z,51.65
2023-01-29T10:44:44.097Z,51.30
2023-01-29T10:47:26.125Z,51.09
2023-01-29T10:50:15.054Z,52.24
2023-01-29T10:52:50.602Z,51.52
2023-01-29T10:55:39.805Z,52.51
2023-01-29T10:58:31.884Z,51.31
2023-01-29T11:00:58.739Z,51.63
2023-01-29T11:03:33.467Z,53.73
2023-01-29T11:06:04.562Z,53.01
2023-01-29T11:08:43.362Z,52.19
2023-01-29T11:11:17.864Z,50.10
2023-01-29T11:14:08.934Z,49.69
2023-01-29T11:16:43.543Z,49.84
2023-01-29T11:19:10.708Z,49.85
2023-01-29T11:21:57.635Z,48.86
2023-01-29T11:24:24.885Z,51.13
2023-01-29T11:26:58.519Z,51.04
2023-01-29T11:29:39.968Z,51.31
2023-01-29T11:32:34.361Z,51.45
2023-01-29T11:35:02.175Z,52.27
2023-01-29T11:37:39.910Z,50.54
2023-01-29T11:40:19.051Z,49.63
2023-01-29T11:42:46.053Z,50.22
2023-01-29T11:45:25.000Z,51.13
2023-01-29T11:47:56.059Z,52.80
2023-01-29T11:50:25.539Z,53.58
2023-01-29T11:52:52.333Z,52.60
2023-01-29T11:55:22.030Z,51.11
2023-01-29T11:57:51.682Z,51.72
2023-01-29T12:00:27.036Z,50.99
2023-01-29T12:03:05.239Z,51.78
2023-01-29T12:05:31.780Z,52.33
2023-01-29T12:08:00.779Z,50.86
2023-01-29T12:10:35.480Z,52.74
2023-01-29T12:13:11.100Z,52.20
2023-01-29T12:15:38.889Z,50.63
2023-01-29T12:18:30.391Z,50.48
2023-01-29T12:21:05.739Z,50.43
2023-01-29T12:23:57.396Z,51.59
2023-01-29T12:26:27.902Z,53.51
2023-01-29T12:29:15.902Z,53.51
2023-01-29T12:31:50.502Z,52.31
2023-01-29T12:34:19.768Z,53.17
2023-01-29T12:37:31.230Z,52.47
2023-01-29T12:39:57.759Z,52.83
2023-01-29T12:42:24.509Z,53.50
2023-01-29T12:44:55.446Z,52.68
2023-01-29T12:47:31.824Z,52.46
2023-01-29T12:50:03.437Z,51.45
2023-01-29T12:52:54.467Z,50.46
2023-01-29T12:55:32.271Z,50.75
2023-01-29T12:58:01.152Z,52.36
2023-01-29T13:00:48.671Z,50.89
2023-01-29T13:03:29.537Z,51.09
2023-01-29T13:06:19.547Z,50.84
2023-01-29T13:08:54.211Z,51.76
2023-01-29T13:11:27.140Z,53.13
2023-01-29T13:14:04.444Z,51.20
2023-01-29T13:16:37.871Z,49.46
2023-01-29T13:19:15.295Z,50.17
2023-01-29T13:21:43.822Z,49.79
2023-01-29T13:24:11.875Z,50.79
2023-01-29T13:26:39.163Z,51.30
2023-01-29T13:29:06.109Z,50.06
2023-01-29T13:31:38.966Z,51.02
2023-01-29T13:34:28.333Z,50.46
2023-01-29T13:36:56.929Z,50.60
2023-01-29T13:39:27.683Z,49.77
2023-01-29T13:41:55.536Z,50.63
2023-01-29T13:44:24.284Z,50.32
2023-01-29T13:46:59.185Z,49.18
2023-01-29T13:49:37.808Z,48.97
2023-01-29T13:52:28.624Z,49.72
2023-01-29T13:54:58.279Z,49.24
2023-01-29T13:57:43.696Z,49.76
2023-01-29T14:00:22.530Z,51.19
2023-01-29T14:02:54.930Z,51.32
2023-01-29T14:05:30.646Z,52.79
2023-01-29T14:08:06.106Z,52.72
2023-01-29T14:10:33.935Z,50.83
2023-01-29T14:13:03.439Z,52.25
2023-01-29T14:15:34.974Z,51.04
2023-01-29T14:18:10.849Z,50.01
2023-01-29T14:20:46.098Z,49.77
2023-01-29T14:23:41.967Z,51.23
2023-01-29T14:26:28.933Z,51.02
2023-01-29T14:29:03.223Z,49.65
2023-01-29T14:31:52.368Z,49.83
2023-01-29T14:34:31.550Z,49.17
2023-01-29T14:37:04.014Z,50.14
2023-01-29T14:39:51.645Z,49.49
2023-01-29T14:42:29.017Z,50.57
2023-01-29T14:44:55.434Z,49.92
2023-01-29T14:47:28.044Z,50.44
2023-01-29T14:49:58.002Z,50.46
2023-01-29T14:52:37.761Z,50.48
2023-01-29T14:55:09.153Z,53.25
2023-01-29T14:57:35.628Z,54.09
2023-01-29T15:00:19.165Z,53.76
2023-01-29T15:02:46.329Z,53.54
2023-01-29T15:05:20.929Z,52.95
2023-01-29T15:07:52.467Z,52.83
2023-01-29T15:10:23.021Z,53.09
2023-01-29T15:13:07.876Z,52.46
2023-01-29T15:15:52.657Z,53.27
2023-01-29T15:18:23.490Z,52.74
2023-01-29T15:20:49.995Z,53.61
2023-01-29T15:23:25.751Z,53.35
2023-01-29T15:25:54.668Z,52.49
2023-01-29T15:28:21.324Z,52.40
2023-01-29T15:30:53.521Z,52.17
2023-01-29T15:33:20.538Z,52.79
2023-01-29T15:35:49.874Z,53.94
2023-01-29T15:38:21.560Z,53.30
2023-01-29T15:40:54.757Z,52.85
2023-01-29T15:43:22.524Z,53.54
2023-01-29T15:45:49.537Z,53.65
2023-01-29T15:48:33.116Z,53.86
2023-01-29T15:50:59.927Z,54.04
2023-01-29T15:53:35.531Z,54.59
2023-01-29T15:56:02.233Z,54.80
2023-01-29T15:58:29.683Z,54.66
2023-01-29T16:00:56.794Z,54.74
2023-01-29T16:03:24.019Z,54.97
2023-01-29T16:05:51.948Z,55.17
2023-01-29T16:08:18.836Z,55.13
2023-01-29T16:10:45.875Z,55.29
2023-01-29T16:13:19.157Z,55.70
2023-01-29T16:16:01.877Z,55.91
2023-01-29T16:18:35.961Z,56.29
2023-01-29T16:21:12.887Z,56.41
2023-01-29T16:23:45.099Z,56.39
2023-01-29T16:26:15.974Z,56.48
2023-01-29T16:28:42.965Z,57.08
2023-01-29T16:31:10.530Z,57.52
2023-01-29T16:33:37.606Z,57.73
2023-01-29T16:36:06.100Z,56.87
2023-01-29T16:38:32.847Z,57.20
2023-01-29T16:41:06.715Z,57.12
2023-01-29T16:43:42.183Z,57.07
2023-01-29T16:46:18.689Z,57.25
2023-01-29T16:48:45.369Z,57.71
2023-01-29T16:51:26.569Z,57.30
2023-01-29T16:54:01.176Z,57.65
2023-01-29T16:56:30.465Z,58.40
2023-01-29T16:58:57.299Z,57.84
2023-01-29T17:01:24.936Z,57.87
2023-01-29T17:04:07.619Z,58.25
2023-01-29T17:06:34.535Z,58.39
2023-01-29T17:09:01.188Z,57.85
2023-01-29T17:11:36.566Z,58.38
2023-01-29T17:14:05.325Z,58.32
2023-01-29T17:16:34.550Z,58.40
2023-01-29T17:19:01.329Z,59.28
2023-01-29T17:21:28.942Z,59.19
2023-01-29T17:23:55.545Z,59.64
2023-01-29T17:26:23.197Z,59.48
2023-01-29T17:28:50.620Z,58.77
2023-01-29T17:31:17.268Z,58.71
2023-01-29T17:33:44.661Z,58.90
2023-01-29T17:36:14.528Z,59.04
2023-01-29T17:38:41.416Z,58.93
2023-01-29T17:41:24.887Z,58.93
2023-01-29T17:43:51.818Z,58.27
2023-01-29T17:46:18.671Z,58.52
2023-01-29T17:48:45.651Z,58.98
2023-01-29T17:51:16.630Z,58.87
2023-01-29T17:53:46.225Z,59.27
2023-01-29T17:56:27.428Z,59.02
2023-01-29T17:58:54.039Z,59.31
2023-01-29T18:01:20.683Z,58.78
2023-01-29T18:03:47.304Z,59.18
2023-01-29T18:06:26.208Z,59.34
2023-01-29T18:08:52.810Z,59.04
2023-01-29T18:11:19.380Z,59.13
2023-01-29T18:13:46.239Z,59.43
2023-01-29T18:16:12.779Z,59.19
2023-01-29T18:18:40.376Z,58.91
2023-01-29T18:21:07.936Z,59.21
2023-01-29T18:23:34.562Z,59.62
2023-01-29T18:26:01.220Z,59.91
2023-01-29T18:28:27.799Z,60.20
2023-01-29T18:30:54.372Z,59.71
2023-01-29T18:33:21.068Z,59.59
2023-01-29T18:35:50.528Z,59.82
2023-01-29T18:38:17.435Z,60.13
2023-01-29T18:40:44.076Z,59.96
2023-01-29T18:43:10.594Z,60.08
2023-01-29T18:45:37.220Z,60.61
2023-01-29T18:48:03.917Z,60.46
2023-01-29T18:50:30.665Z,60.35
2023-01-29T18:52:57.286Z,60.29
2023-01-29T18:55:24.455Z,60.67
2023-01-29T18:58:33.980Z,59.96
2023-01-29T19:00:41.979Z,59.85
2023-01-29T19:03:08.519Z,60.33
2023-01-29T19:05:35.098Z,60.46
2023-01-29T19:08:01.956Z,60.44
2023-01-29T19:10:28.523Z,60.89
2023-01-29T19:12:55.042Z,60.30
2023-01-29T19:15:22.717Z,60.40
2023-01-29T19:17:50.546Z,60.53
2023-01-29T19:20:17.644Z,60.32
2023-01-29T19:22:44.231Z,60.10
2023-01-29T19:25:10.869Z,60.01
2023-01-29T19:27:37.714Z,60.25
2023-01-29T19:30:05.807Z,59.81
2023-01-29T19:32:32.715Z,60.67
2023-01-29T19:34:59.271Z,61.00
2023-01-29T19:37:26.062Z,60.35
2023-01-29T19:39:53.818Z,60.41
2023-01-29T19:42:20.942Z,60.57
2023-01-29T19:44:47.717Z,60.50
2023-01-29T19:47:14.299Z,61.00
2023-01-29T19:49:40.901Z,60.30
2023-01-29T19:52:14.889Z,60.52
2023-01-29T19:54:46.596Z,59.99
2023-01-29T19:57:13.257Z,60.20
2023-01-29T19:59:39.879Z,60.60
2023-01-29T20:02:06.603Z,60.86
2023-01-29T20:04:33.283Z,60.56
2023-01-29T20:07:00.324Z,60.99
2023-01-29T20:09:29.341Z,60.96
2023-01-29T20:11:55.853Z,60.14
2023-01-29T20:14:22.486Z,60.07
2023-01-29T20:16:49.025Z,61.15
2023-01-29T20:19:16.344Z,60.66
2023-01-29T20:21:45.781Z,61.12
2023-01-29T20:24:12.957Z,60.95
2023-01-29T20:26:39.811Z,60.11
2023-01-29T20:29:06.570Z,60.68
2023-01-29T20:31:33.274Z,63.24
2023-01-29T20:33:59.873Z,61.92
2023-01-29T20:36:26.473Z,63.22
2023-01-29T20:38:53.034Z,62.10
2023-01-29T20:41:19.909Z,61.35
2023-01-29T20:43:47.056Z,61.81
2023-01-29T20:46:13.951Z,62.12
2023-01-29T20:48:42.050Z,61.46
2023-01-29T20:51:13.038Z,61.86
2023-01-29T20:53:44.268Z,62.85
2023-01-29T20:56:11.403Z,64.19
2023-01-29T20:58:38.180Z,65.45
2023-01-29T21:01:11.917Z,64.43
2023-01-29T21:03:39.413Z,63.61
2023-01-29T21:06:06.791Z,63.70
2023-01-29T21:08:33.556Z,63.30
2023-01-29T21:11:00.135Z,63.27
2023-01-29T21:13:26.700Z,62.26
2023-01-29T21:15:53.303Z,61.80
2023-01-29T21:18:26.124Z,62.00
2023-01-29T21:21:19.173Z,62.31
2023-01-29T21:24:18.213Z,62.27
2023-01-29T21:26:51.666Z,62.12
2023-01-29T21:29:31.363Z,61.49
2023-01-29T21:32:17.539Z,61.34
2023-01-29T21:35:08.113Z,61.12
2023-01-29T21:37:45.733Z,61.44
2023-01-29T21:40:47.456Z,60.85
2023-01-29T21:43:23.381Z,60.90
2023-01-29T21:46:16.609Z,60.45
2023-01-29T21:48:53.560Z,61.82
2023-01-29T21:51:27.631Z,62.50
2023-01-29T21:54:07.070Z,62.78
2023-01-29T21:56:48.865Z,62.95
2023-01-29T21:59:41.505Z,63.23
2023-01-29T22:02:17.574Z,62.97
2023-01-29T22:04:53.006Z,62.79
2023-01-29T22:07:24.331Z,62.95
2023-01-29T22:09:56.726Z,63.57
2023-01-29T22:12:30.689Z,63.68
2023-01-29T22:15:11.936Z,63.46
2023-01-29T22:17:57.897Z,63.05
2023-01-29T22:20:31.404Z,63.27
2023-01-29T22:23:18.109Z,63.38
2023-01-29T22:26:08.524Z,63.99
2023-01-29T22:28:41.914Z,63.33
2023-01-29T22:31:13.766Z,62.89
2023-01-29T22:34:22.147Z,63.64
2023-01-29T22:37:01.957Z,63.49
2023-01-29T22:39:44.354Z,64.58
2023-01-29T22:42:17.494Z,63.79
2023-01-29T22:44:57.979Z,64.30
2023-01-29T22:47:39.156Z,63.57
2023-01-29T22:50:07.530Z,64.01
2023-01-29T22:52:43.593Z,63.77
2023-01-29T22:55:18.243Z,62.63
2023-01-29T22:58:15.374Z,63.71
2023-01-29T23:01:04.662Z,63.22
2023-01-29T23:04:06.844Z,62.79
2023-01-29T23:06:48.604Z,62.09
2023-01-29T23:09:23.346Z,62.27
2023-01-29T23:12:02.721Z,63.23
2023-01-29T23:14:42.418Z,62.64
2023-01-29T23:17:18.075Z,62.08
2023-01-29T23:20:08.053Z,62.06
2023-01-29T23:23:00.228Z,62.18
2023-01-29T23:25:54.438Z,61.91
2023-01-29T23:28:20.983Z,62.57
2023-01-29T23:30:47.903Z,62.41
2023-01-29T23:33:14.762Z,63.50
2023-01-29T23:35:41.687Z,63.93
2023-01-29T23:38:08.208Z,62.66
2023-01-29T23:40:34.744Z,62.66
2023-01-29T23:43:01.424Z,61.90
2023-01-29T23:45:27.953Z,62.95
2023-01-29T23:47:54.452Z,63.18
2023-01-29T23:50:20.975Z,62.73
2023-01-29T23:52:47.517Z,62.47
2023-01-29T23:55:14.033Z,62.91
2023-01-29T23:57:40.590Z,62.99
